createdAt,value
2019-02-18T00:01:38.411Z,80.63
2019-02-18T00:04:09.642Z,80.80
2019-02-18T00:06:40.078Z,81.08
2019-02-18T00:09:10.202Z,81.24
2019-02-18T00:11:40.627Z,80.88
2019-02-18T00:14:10.969Z,81.21
2019-02-18T00:16:41.527Z,81.21
2019-02-18T00:19:11.754Z,81.48
2019-02-18T00:21:42.170Z,81.81
2019-02-18T00:24:12.321Z,81.89
2019-02-18T00:26:42.641Z,81.73
2019-02-18T00:29:12.867Z,81.85
2019-02-18T00:31:43.047Z,82.14
2019-02-18T00:34:13.363Z,82.09
2019-02-18T00:36:43.598Z,81.68
2019-02-18T00:39:13.782Z,81.62
2019-02-18T00:41:44.029Z,81.29
2019-02-18T00:44:14.214Z,80.77
2019-02-18T00:46:44.500Z,80.77
2019-02-18T00:49:14.643Z,80.93
2019-02-18T00:51:44.775Z,81.45
2019-02-18T00:54:14.921Z,82.02
2019-02-18T00:56:45.093Z,82.32
2019-02-18T00:59:15.343Z,82.67
2019-02-18T01:01:45.611Z,82.76
2019-02-18T01:04:15.783Z,82.62
2019-02-18T01:06:45.950Z,82.54
2019-02-18T01:09:16.166Z,82.76
2019-02-18T01:11:46.349Z,83.05
2019-02-18T01:14:16.570Z,83.39
2019-02-18T01:16:46.772Z,83.31
2019-02-18T01:19:18.022Z,83.31
2019-02-18T01:21:48.117Z,83.36
2019-02-18T01:24:18.351Z,83.41
2019-02-18T01:26:49.165Z,83.68
2019-02-18T01:29:19.494Z,83.97
2019-02-18T01:31:49.610Z,84.22
2019-02-18T01:34:19.931Z,84.23
2019-02-18T01:36:50.050Z,83.73
2019-02-18T01:39:20.346Z,83.54
2019-02-18T01:41:50.592Z,83.51
2019-02-18T01:44:20.762Z,83.55
2019-02-18T01:46:50.977Z,83.53
2019-02-18T01:49:21.355Z,83.79
2019-02-18T01:51:51.557Z,84.17
2019-02-18T01:54:21.717Z,84.51
2019-02-18T01:56:51.853Z,84.52
2019-02-18T01:59:22.214Z,84.29
2019-02-18T02:01:52.933Z,83.96
2019-02-18T02:04:23.258Z,83.73
2019-02-18T02:06:53.446Z,83.83
2019-02-18T02:09:23.641Z,84.36
2019-02-18T02:11:53.773Z,84.55
2019-02-18T02:14:24.003Z,84.53
2019-02-18T02:16:54.365Z,84.28
2019-02-18T02:19:24.512Z,84.19
2019-02-18T02:21:54.727Z,84.36
2019-02-18T02:24:24.876Z,84.60
2019-02-18T02:26:55.069Z,84.85
2019-02-18T02:29:25.190Z,85.08
2019-02-18T02:31:55.478Z,85.35
2019-02-18T02:34:25.904Z,85.35
2019-02-18T02:36:56.122Z,85.07
2019-02-18T02:39:26.270Z,84.69
2019-02-18T02:41:56.349Z,84.41
2019-02-18T02:44:26.576Z,84.53
2019-02-18T02:46:56.742Z,84.70
2019-02-18T02:49:26.886Z,84.86
2019-02-18T02:51:58.093Z,85.08
2019-02-18T02:54:28.283Z,85.14
2019-02-18T02:56:58.417Z,85.41
2019-02-18T02:59:28.904Z,85.52
2019-02-18T03:01:59.178Z,85.56
2019-02-18T03:04:29.801Z,85.64
2019-02-18T03:07:00.138Z,85.85
2019-02-18T03:09:30.512Z,85.97
2019-02-18T03:12:00.668Z,86.15
2019-02-18T03:14:31.366Z,86.35
2019-02-18T03:17:01.759Z,86.64
2019-02-18T03:19:31.920Z,86.59
2019-02-18T03:22:03.147Z,86.22
2019-02-18T03:24:33.578Z,86.22
2019-02-18T03:27:03.698Z,86.41
2019-02-18T03:30:06.155Z,86.53
2019-02-18T03:32:45.954Z,86.65
2019-02-18T03:35:16.219Z,86.77
2019-02-18T03:37:46.314Z,86.91
2019-02-18T03:40:16.489Z,87.07
2019-02-18T03:42:46.687Z,86.47
2019-02-18T03:45:17.101Z,86.11
2019-02-18T03:47:47.203Z,86.04
2019-02-18T03:50:17.486Z,86.24
2019-02-18T03:52:47.632Z,86.46
2019-02-18T03:55:17.925Z,86.66
2019-02-18T03:57:48.145Z,86.89
2019-02-18T04:00:19.797Z,86.94
2019-02-18T04:02:50.166Z,86.80
2019-02-18T04:05:20.534Z,86.82
2019-02-18T04:07:50.808Z,87.11
2019-02-18T04:10:22.012Z,86.74
2019-02-18T04:12:52.138Z,86.29
2019-02-18T04:15:26.095Z,86.10
2019-02-18T04:17:56.351Z,86.16
2019-02-18T04:20:27.053Z,86.34
2019-02-18T04:22:57.498Z,86.45
2019-02-18T04:25:27.985Z,86.79
2019-02-18T04:27:58.147Z,86.82
2019-02-18T04:30:28.561Z,87.04
2019-02-18T04:32:58.790Z,87.30
2019-02-18T04:35:28.923Z,87.56
2019-02-18T04:37:59.143Z,87.57
2019-02-18T04:40:29.421Z,87.47
2019-02-18T04:42:59.565Z,87.48
2019-02-18T04:45:29.844Z,86.87
2019-02-18T04:48:00.276Z,86.72
2019-02-18T04:50:30.769Z,86.88
2019-02-18T04:53:01.217Z,87.12
2019-02-18T04:55:31.414Z,87.37
2019-02-18T04:58:01.548Z,87.42
2019-02-18T05:00:31.858Z,87.38
2019-02-18T05:03:02.153Z,87.37
2019-02-18T05:05:34.354Z,87.39
2019-02-18T05:08:04.292Z,87.64
2019-02-18T05:10:36.347Z,87.82
2019-02-18T05:13:06.517Z,87.72
2019-02-18T05:15:36.753Z,87.37
2019-02-18T05:18:07.013Z,87.06
2019-02-18T05:20:37.296Z,87.02
2019-02-18T05:23:07.429Z,87.19
2019-02-18T05:25:37.573Z,87.48
2019-02-18T05:28:07.674Z,87.97
2019-02-18T05:30:39.215Z,88.04
2019-02-18T05:33:09.443Z,88.04
2019-02-18T05:35:39.691Z,88.03
2019-02-18T05:38:10.339Z,87.91
2019-02-18T05:44:30.731Z,88.17
2019-02-18T05:47:01.159Z,89.15
2019-02-18T05:49:31.301Z,89.41
2019-02-18T05:52:01.565Z,89.28
2019-02-18T05:54:31.780Z,88.87
2019-02-18T05:57:01.968Z,88.49
2019-02-18T05:59:32.215Z,88.61
2019-02-18T06:02:02.591Z,88.57
2019-02-18T06:04:32.894Z,88.49
2019-02-18T06:07:03.566Z,88.40
2019-02-18T06:09:34.023Z,88.22
2019-02-18T06:12:04.258Z,87.99
2019-02-18T06:14:34.458Z,88.10
2019-02-18T06:17:04.625Z,88.64
2019-02-18T06:19:35.070Z,88.76
2019-02-18T06:22:05.649Z,89.05
2019-02-18T06:24:36.055Z,89.00
2019-02-18T06:27:06.447Z,88.44
2019-02-18T06:29:36.604Z,88.45
2019-02-18T06:32:07.020Z,88.71
2019-02-18T06:34:37.491Z,88.84
2019-02-18T06:37:07.906Z,88.84
2019-02-18T06:39:41.665Z,88.85
2019-02-18T06:42:11.237Z,88.81
2019-02-18T06:44:53.392Z,88.36
2019-02-18T06:47:26.098Z,88.05
2019-02-18T06:49:56.238Z,87.85
2019-02-18T06:52:26.569Z,87.79
2019-02-18T06:54:56.820Z,87.79
2019-02-18T06:57:55.159Z,87.87
2019-02-18T07:00:40.499Z,87.95
2019-02-18T07:03:21.812Z,88.05
2019-02-18T07:05:56.965Z,88.14
2019-02-18T07:09:01.211Z,88.08
2019-02-18T07:11:50.869Z,88.06
2019-02-18T07:14:23.197Z,88.12
2019-02-18T07:16:53.654Z,88.32
2019-02-18T07:19:23.977Z,88.33
2019-02-18T07:21:54.132Z,88.30
2019-02-18T07:24:24.436Z,88.08
2019-02-18T07:26:54.971Z,88.04
2019-02-18T07:29:25.448Z,88.10
2019-02-18T07:31:55.888Z,88.33
2019-02-18T07:34:26.215Z,88.33
2019-02-18T07:36:56.540Z,88.30
2019-02-18T07:39:27.408Z,88.46
2019-02-18T07:41:57.550Z,88.66
2019-02-18T07:44:28.112Z,88.81
2019-02-18T07:46:58.595Z,88.99
2019-02-18T07:49:28.967Z,89.09
2019-02-18T07:51:59.154Z,89.19
2019-02-18T07:54:29.724Z,89.85
2019-02-18T07:57:00.258Z,89.89
2019-02-18T07:59:30.837Z,89.83
2019-02-18T08:02:01.236Z,90.01
2019-02-18T08:04:31.465Z,90.33
2019-02-18T08:07:02.065Z,90.50
2019-02-18T08:09:32.610Z,90.16
2019-02-18T08:12:02.808Z,89.69
2019-02-18T08:14:40.133Z,89.01
2019-02-18T08:17:10.289Z,88.35
2019-02-18T08:19:40.468Z,87.57
2019-02-18T08:22:10.760Z,85.97
2019-02-18T08:24:41.243Z,84.91
2019-02-18T08:27:11.583Z,82.67
2019-02-18T08:29:41.944Z,79.23
2019-02-18T08:32:12.294Z,74.78
2019-02-18T08:34:42.533Z,68.45
2019-02-18T08:37:12.800Z,60.09
2019-02-18T08:39:42.950Z,53.60
2019-02-18T08:42:13.075Z,49.20
2019-02-18T08:44:43.804Z,41.55
2019-02-18T08:47:14.214Z,40.10
2019-02-18T08:49:44.499Z,39.59
2019-02-18T08:52:14.778Z,37.16
2019-02-18T08:54:45.012Z,37.06
2019-02-18T08:57:15.150Z,35.47
2019-02-18T08:59:45.559Z,32.39
2019-02-18T09:02:15.809Z,31.17
2019-02-18T09:04:46.025Z,30.75
2019-02-18T09:07:16.628Z,31.16
2019-02-18T09:09:47.069Z,29.93
2019-02-18T09:12:17.454Z,28.55
2019-02-18T09:14:47.739Z,29.34
2019-02-18T09:17:18.011Z,27.37
2019-02-18T09:19:48.158Z,27.45
2019-02-18T09:22:35.835Z,26.90
2019-02-18T09:25:18.111Z,25.10
2019-02-18T09:27:50.302Z,25.03
2019-02-18T09:30:24.723Z,23.04
2019-02-18T09:32:55.799Z,23.21
2019-02-18T09:35:26.138Z,23.04
2019-02-18T09:37:56.396Z,21.71
2019-02-18T09:40:26.649Z,21.85
2019-02-18T09:42:56.751Z,20.59
2019-02-18T09:45:27.054Z,20.18
2019-02-18T09:47:57.264Z,20.85
2019-02-18T09:50:27.470Z,20.72
2019-02-18T09:52:57.646Z,19.45
2019-02-18T09:55:27.745Z,19.76
2019-02-18T09:57:58.037Z,19.32
2019-02-18T10:00:28.325Z,18.48
2019-02-18T10:02:58.515Z,18.07
2019-02-18T10:05:28.670Z,17.65
2019-02-18T10:07:58.900Z,17.39
2019-02-18T10:10:29.056Z,17.16
2019-02-18T10:12:59.777Z,16.04
2019-02-18T10:15:30.285Z,15.96
2019-02-18T10:18:00.668Z,15.76
2019-02-18T10:20:30.850Z,16.39
2019-02-18T10:23:01.028Z,16.76
2019-02-18T10:25:31.409Z,16.80
2019-02-18T10:28:02.205Z,16.91
2019-02-18T10:30:34.574Z,15.24
2019-02-18T10:33:05.103Z,15.29
2019-02-18T10:35:35.732Z,15.61
2019-02-18T10:38:06.095Z,14.83
2019-02-18T10:40:36.282Z,15.41
2019-02-18T10:43:06.474Z,14.98
2019-02-18T10:45:36.766Z,14.61
2019-02-18T10:48:06.981Z,13.86
2019-02-18T10:50:37.210Z,14.23
2019-02-18T10:53:07.413Z,13.61
2019-02-18T10:55:37.595Z,12.87
2019-02-18T10:58:08.830Z,13.02
2019-02-18T11:00:39.634Z,12.46
2019-02-18T11:03:09.888Z,11.53
2019-02-18T11:05:40.409Z,12.59
2019-02-18T11:08:10.961Z,12.54
2019-02-18T11:10:41.355Z,13.43
2019-02-18T11:13:11.569Z,13.79
2019-02-18T11:15:42.787Z,12.43
2019-02-18T11:18:13.195Z,12.37
2019-02-18T11:20:43.401Z,12.52
2019-02-18T11:23:13.536Z,12.69
2019-02-18T11:25:44.406Z,12.92
2019-02-18T11:28:14.680Z,12.39
2019-02-18T11:30:45.011Z,12.00
2019-02-18T11:33:15.271Z,11.82
2019-02-18T11:35:45.655Z,11.96
2019-02-18T11:38:16.961Z,10.79
2019-02-18T11:40:47.595Z,10.79
2019-02-18T11:43:17.904Z,10.69
2019-02-18T11:45:48.378Z,10.81
2019-02-18T11:48:18.650Z,12.17
2019-02-18T11:50:49.202Z,12.37
2019-02-18T11:53:19.535Z,12.03
2019-02-18T11:55:49.957Z,10.65
2019-02-18T11:58:20.259Z,11.43
2019-02-18T12:00:50.869Z,11.79
2019-02-18T12:03:21.359Z,11.15
2019-02-18T12:05:51.660Z,10.38
2019-02-18T12:08:21.850Z,10.04
2019-02-18T12:10:52.152Z,8.77
2019-02-18T12:13:22.330Z,9.55
2019-02-18T12:15:52.646Z,9.07
2019-02-18T12:18:22.915Z,9.39
2019-02-18T12:20:53.408Z,8.76
2019-02-18T12:23:23.829Z,9.47
2019-02-18T12:25:54.229Z,10.69
2019-02-18T12:28:24.611Z,10.11
2019-02-18T12:30:54.820Z,10.93
2019-02-18T12:33:24.991Z,10.39
2019-02-18T12:35:55.263Z,10.10
2019-02-18T12:38:25.980Z,10.65
2019-02-18T12:40:56.236Z,10.81
2019-02-18T12:50:34.741Z,12.88
2019-02-18T12:53:05.096Z,13.08
2019-02-18T12:55:35.890Z,13.33
2019-02-18T12:58:06.300Z,13.17
2019-02-18T13:00:38.023Z,13.26
2019-02-18T13:03:08.531Z,12.51
2019-02-18T13:05:38.851Z,11.17
2019-02-18T13:08:09.845Z,11.23
2019-02-18T13:10:40.414Z,11.95
2019-02-18T13:13:10.664Z,12.18
2019-02-18T13:15:41.300Z,11.68
2019-02-18T13:18:11.644Z,11.25
2019-02-18T13:20:42.216Z,10.30
2019-02-18T13:23:13.015Z,10.94
2019-02-18T13:25:47.489Z,10.27
2019-02-18T13:28:15.436Z,10.06
2019-02-18T13:30:45.859Z,10.08
2019-02-18T13:33:16.218Z,9.94
2019-02-18T13:35:48.748Z,11.26
2019-02-18T13:38:19.050Z,10.83
2019-02-18T13:40:49.504Z,11.31
2019-02-18T13:43:19.704Z,11.38
2019-02-18T13:45:50.055Z,11.64
2019-02-18T13:48:20.696Z,11.65
2019-02-18T13:50:51.309Z,11.75
2019-02-18T13:53:21.559Z,12.77
2019-02-18T13:55:51.745Z,12.54
2019-02-18T13:58:22.384Z,13.31
2019-02-18T14:00:53.058Z,12.54
2019-02-18T14:03:23.406Z,12.43
2019-02-18T14:05:54.154Z,12.28
2019-02-18T14:08:24.751Z,12.88
2019-02-18T14:10:55.371Z,13.65
2019-02-18T14:13:26.013Z,14.35
2019-02-18T14:15:56.740Z,14.47
2019-02-18T14:18:27.386Z,15.54
2019-02-18T14:20:58.379Z,15.34
2019-02-18T14:23:28.817Z,15.02
2019-02-18T14:25:59.446Z,14.84
2019-02-18T14:28:30.057Z,15.12
2019-02-18T14:31:01.305Z,14.38
2019-02-18T14:33:32.193Z,14.99
2019-02-18T14:36:02.669Z,14.02
2019-02-18T14:38:32.874Z,14.82
2019-02-18T14:41:03.209Z,14.43
2019-02-18T14:43:34.022Z,13.80
2019-02-18T14:46:04.508Z,14.35
2019-02-18T14:48:35.151Z,13.88
2019-02-18T14:51:05.695Z,14.00
2019-02-18T14:53:35.951Z,15.22
2019-02-18T14:56:07.441Z,15.34
2019-02-18T14:58:37.911Z,15.66
2019-02-18T15:01:09.201Z,15.67
2019-02-18T15:03:39.688Z,17.19
2019-02-18T15:06:10.000Z,18.54
2019-02-18T15:08:40.899Z,19.28
2019-02-18T15:11:12.083Z,19.72
2019-02-18T15:13:42.431Z,20.53
2019-02-18T15:16:12.663Z,20.92
2019-02-18T15:18:42.843Z,21.41
2019-02-18T15:21:13.242Z,21.85
2019-02-18T15:23:43.422Z,22.68
2019-02-18T15:26:13.772Z,23.31
2019-02-18T15:28:44.321Z,23.56
2019-02-18T15:31:14.685Z,25.29
2019-02-18T15:33:45.114Z,24.60
2019-02-18T15:36:15.372Z,23.85
2019-02-18T15:38:46.081Z,25.84
2019-02-18T15:41:16.587Z,26.24
2019-02-18T15:43:46.875Z,27.02
2019-02-18T15:46:17.712Z,26.96
2019-02-18T15:48:48.043Z,27.11
2019-02-18T15:51:19.169Z,27.15
2019-02-18T15:53:49.500Z,28.01
2019-02-18T15:56:21.189Z,28.17
2019-02-18T15:58:51.576Z,28.52
2019-02-18T16:01:22.244Z,28.65
2019-02-18T16:03:52.865Z,29.32
2019-02-18T16:06:23.580Z,30.66
2019-02-18T16:08:55.087Z,30.65
2019-02-18T16:11:25.501Z,30.39
2019-02-18T16:13:55.855Z,30.99
2019-02-18T16:16:26.282Z,32.00
2019-02-18T16:18:57.033Z,33.00
2019-02-18T16:21:27.400Z,34.02
2019-02-18T16:23:57.719Z,34.30
2019-02-18T16:26:29.032Z,34.49
2019-02-18T16:28:59.671Z,33.54
2019-02-18T16:31:30.559Z,33.87
2019-02-18T16:34:01.216Z,34.99
2019-02-18T16:36:31.475Z,35.68
2019-02-18T16:39:02.119Z,36.48
2019-02-18T16:41:36.201Z,37.15
2019-02-18T16:44:06.936Z,37.87
2019-02-18T16:46:37.223Z,38.55
2019-02-18T16:49:08.116Z,39.57
2019-02-18T16:51:38.497Z,39.33
2019-02-18T16:54:08.999Z,38.84
2019-02-18T16:56:39.611Z,39.81
2019-02-18T16:59:10.333Z,40.18
2019-02-18T17:01:41.255Z,41.06
2019-02-18T17:04:11.626Z,41.58
2019-02-18T17:06:42.330Z,42.00
2019-02-18T17:09:17.360Z,42.42
2019-02-18T17:11:47.859Z,43.88
2019-02-18T17:14:18.105Z,44.49
2019-02-18T17:16:48.329Z,45.56
2019-02-18T17:19:18.756Z,46.23
2019-02-18T17:21:49.331Z,46.43
2019-02-18T17:24:19.988Z,46.67
2019-02-18T17:26:50.283Z,47.41
2019-02-18T17:29:20.526Z,48.10
2019-02-18T17:31:51.282Z,48.80
2019-02-18T17:34:21.640Z,49.19
2019-02-18T17:36:52.117Z,49.88
2019-02-18T17:39:22.303Z,50.99
2019-02-18T17:41:53.728Z,51.08
2019-02-18T17:44:24.493Z,51.18
2019-02-18T17:46:54.775Z,51.25
2019-02-18T17:49:24.997Z,51.94
2019-02-18T17:51:56.111Z,52.55
2019-02-18T17:54:26.406Z,52.86
2019-02-18T17:56:57.024Z,52.71
2019-02-18T17:59:27.507Z,53.02
2019-02-18T18:01:58.929Z,52.95
2019-02-18T18:04:29.186Z,53.12
2019-02-18T18:06:59.411Z,53.35
2019-02-18T18:09:30.031Z,54.25
2019-02-18T18:12:00.190Z,54.08
2019-02-18T18:14:30.901Z,54.75
2019-02-18T18:17:01.278Z,55.15
2019-02-18T18:24:19.551Z,56.89
2019-02-18T18:26:49.836Z,56.75
2019-02-18T18:29:20.275Z,56.83
2019-02-18T18:31:50.663Z,57.20
2019-02-18T18:34:21.702Z,57.35
2019-02-18T18:36:52.327Z,57.73
2019-02-18T18:39:22.745Z,57.63
2019-02-18T18:41:53.019Z,58.37
2019-02-18T18:44:23.607Z,58.88
2019-02-18T18:46:54.464Z,59.35
2019-02-18T18:49:25.382Z,59.88
2019-02-18T18:51:55.696Z,59.93
2019-02-18T18:54:26.044Z,60.26
2019-02-18T18:56:56.362Z,60.18
2019-02-18T18:59:26.698Z,60.28
2019-02-18T19:01:57.599Z,60.69
2019-02-18T19:04:28.020Z,61.38
2019-02-18T19:06:58.378Z,62.07
2019-02-18T19:09:29.349Z,63.15
2019-02-18T19:11:59.919Z,63.13
2019-02-18T19:14:30.798Z,63.06
2019-02-18T19:17:01.790Z,63.51
2019-02-18T19:19:32.578Z,63.90
2019-02-18T19:22:03.211Z,63.90
2019-02-18T19:24:33.617Z,64.35
2019-02-18T19:27:04.431Z,64.72
2019-02-18T19:29:34.920Z,64.99
2019-02-18T19:32:05.675Z,64.97
2019-02-18T19:34:36.219Z,65.08
2019-02-18T19:37:06.471Z,65.08
2019-02-18T19:39:37.210Z,65.19
2019-02-18T19:42:07.660Z,65.64
2019-02-18T19:44:38.061Z,65.94
2019-02-18T19:47:08.866Z,66.12
2019-02-18T19:49:39.225Z,66.38
2019-02-18T19:52:10.094Z,66.63
2019-02-18T19:54:41.490Z,66.75
2019-02-18T19:57:13.534Z,67.25
2019-02-18T19:59:44.941Z,67.76
2019-02-18T20:02:15.290Z,67.89
2019-02-18T20:04:45.872Z,68.11
2019-02-18T20:07:16.497Z,68.07
2019-02-18T20:09:46.928Z,68.21
2019-02-18T20:12:17.352Z,68.89
2019-02-18T20:14:47.870Z,68.96
2019-02-18T20:17:18.205Z,69.04
2019-02-18T20:19:49.334Z,68.81
2019-02-18T20:22:19.656Z,68.89
2019-02-18T20:24:50.031Z,69.03
2019-02-18T20:27:20.990Z,69.36
2019-02-18T20:29:51.746Z,69.44
2019-02-18T20:32:22.562Z,69.79
2019-02-18T20:34:53.274Z,69.59
2019-02-18T20:37:23.930Z,69.50
2019-02-18T20:39:54.447Z,69.73
2019-02-18T20:42:25.159Z,69.95
2019-02-18T20:44:55.864Z,70.12
2019-02-18T20:47:26.441Z,70.20
2019-02-18T20:49:56.921Z,70.53
2019-02-18T20:52:27.537Z,70.75
2019-02-18T20:54:58.228Z,71.20
2019-02-18T20:57:28.958Z,71.10
2019-02-18T20:59:59.616Z,71.54
2019-02-18T21:02:30.186Z,71.96
2019-02-18T21:05:00.828Z,72.34
2019-02-18T21:07:32.883Z,72.63
2019-02-18T21:10:03.321Z,72.83
2019-02-18T21:12:34.560Z,72.91
2019-02-18T21:15:05.365Z,73.01
2019-02-18T21:17:36.245Z,73.11
2019-02-18T21:20:07.732Z,73.12
2019-02-18T21:22:38.196Z,73.64
2019-02-18T21:25:09.382Z,74.20
2019-02-18T21:27:39.937Z,73.95
2019-02-18T21:30:11.363Z,74.09
2019-02-18T21:32:41.735Z,74.14
2019-02-18T21:35:12.179Z,74.30
2019-02-18T21:37:42.936Z,74.56
2019-02-18T21:40:13.396Z,74.34
2019-02-18T21:42:44.241Z,74.33
2019-02-18T21:45:14.753Z,74.52
2019-02-18T21:47:45.151Z,74.48
2019-02-18T21:50:16.001Z,74.82
2019-02-18T21:52:46.393Z,75.24
2019-02-18T21:55:16.680Z,75.39
2019-02-18T21:57:47.227Z,75.60
2019-02-18T22:00:19.320Z,75.58
2019-02-18T22:02:49.828Z,75.71
2019-02-18T22:05:20.695Z,76.14
2019-02-18T22:07:51.430Z,76.52
2019-02-18T22:10:21.771Z,76.54
2019-02-18T22:12:52.764Z,76.47
2019-02-18T22:15:23.019Z,76.47
2019-02-18T22:17:53.206Z,76.39
2019-02-18T22:20:23.742Z,76.41
2019-02-18T22:22:54.211Z,76.92
2019-02-18T22:25:24.562Z,76.91
2019-02-18T22:27:54.759Z,77.18
2019-02-18T22:30:25.131Z,77.55
2019-02-18T22:32:55.411Z,77.71
2019-02-18T22:35:25.896Z,77.52
2019-02-18T22:37:56.461Z,77.56
2019-02-18T22:40:26.704Z,77.78
2019-02-18T22:42:56.901Z,77.98
2019-02-18T22:45:27.392Z,78.42
2019-02-18T22:47:58.312Z,78.31
2019-02-18T22:50:28.821Z,78.19
2019-02-18T22:52:59.317Z,77.96
2019-02-18T22:55:29.699Z,77.95
2019-02-18T22:58:01.440Z,77.75
2019-02-18T23:00:59.700Z,77.86
2019-02-18T23:03:30.375Z,77.95
2019-02-18T23:06:00.809Z,78.40
2019-02-18T23:08:31.011Z,78.61
2019-02-18T23:11:01.559Z,79.18
2019-02-18T23:13:31.814Z,79.18
2019-02-18T23:16:02.184Z,79.39
2019-02-18T23:18:32.610Z,78.85
2019-02-18T23:21:02.940Z,78.39
2019-02-18T23:23:33.244Z,77.82
2019-02-18T23:26:03.714Z,77.70
2019-02-18T23:28:33.893Z,78.45
2019-02-18T23:31:04.286Z,79.20
2019-02-18T23:33:34.395Z,79.63
2019-02-18T23:36:05.006Z,80.08
2019-02-18T23:38:35.291Z,79.66
2019-02-18T23:41:05.789Z,79.63
2019-02-18T23:43:35.942Z,79.89
2019-02-18T23:46:06.117Z,80.10
2019-02-18T23:48:36.366Z,80.32
2019-02-18T23:51:06.656Z,80.58
2019-02-18T23:53:36.807Z,80.83
2019-02-18T23:56:07.058Z,80.84
2019-02-18T23:58:37.266Z,80.81
